createdAt,value
2023-03-07T00:01:27.708Z,-1.35
2023-03-07T00:03:54.374Z,-1.51
2023-03-07T00:06:20.989Z,-1.46
2023-03-07T00:08:52.091Z,-1.29
2023-03-07T00:11:19.042Z,-1.40
2023-03-07T00:13:45.482Z,-1.36
2023-03-07T00:16:17.569Z,-1.28
2023-03-07T00:18:44.337Z,-1.56
2023-03-07T00:21:13.797Z,-1.32
2023-03-07T00:23:42.401Z,-1.26
2023-03-07T00:26:12.399Z,-1.11
2023-03-07T00:28:39.035Z,-1.01
2023-03-07T00:31:08.143Z,-1.09
2023-03-07T00:33:35.498Z,-1.20
2023-03-07T00:36:06.191Z,-1.16
2023-03-07T00:38:33.666Z,-1.08
2023-03-07T00:41:06.416Z,-1.05
2023-03-07T00:43:33.930Z,-1.13
2023-03-07T00:46:00.661Z,-1.17
2023-03-07T00:48:27.963Z,-1.11
2023-03-07T00:50:55.472Z,-1.25
2023-03-07T00:53:22.225Z,-1.19
2023-03-07T00:55:54.630Z,-1.15
2023-03-07T00:58:21.172Z,-1.00
2023-03-07T01:00:47.536Z,-1.05
2023-03-07T01:03:13.911Z,-0.98
2023-03-07T01:05:40.825Z,-0.95
2023-03-07T01:08:07.236Z,-0.99
2023-03-07T01:10:33.978Z,-1.08
2023-03-07T01:13:00.923Z,-1.14
2023-03-07T01:15:27.971Z,-1.15
2023-03-07T01:17:54.430Z,-1.15
2023-03-07T01:20:20.795Z,-1.11
2023-03-07T01:22:47.190Z,-1.20
2023-03-07T01:25:13.879Z,-1.21
2023-03-07T01:27:40.421Z,-1.24
2023-03-07T01:30:08.331Z,-1.41
2023-03-07T01:32:35.094Z,-1.25
2023-03-07T01:35:01.507Z,-1.28
2023-03-07T01:37:27.865Z,-1.32
2023-03-07T01:39:54.336Z,-1.22
2023-03-07T01:42:21.445Z,-1.35
2023-03-07T01:45:26.658Z,-1.37
2023-03-07T01:47:53.065Z,-1.33
2023-03-07T01:50:19.846Z,-1.16
2023-03-07T01:52:49.744Z,-1.18
2023-03-07T01:55:22.720Z,-1.29
2023-03-07T01:57:51.813Z,-1.17
2023-03-07T02:00:29.885Z,-1.16
2023-03-07T02:03:11.697Z,-1.15
2023-03-07T02:05:47.259Z,-1.21
2023-03-07T02:08:16.097Z,-1.31
2023-03-07T02:10:43.299Z,-1.22
2023-03-07T02:13:10.787Z,-1.10
2023-03-07T02:15:37.451Z,-1.04
2023-03-07T02:18:05.421Z,-1.05
2023-03-07T02:20:44.064Z,-1.08
2023-03-07T02:23:17.886Z,-1.06
2023-03-07T02:25:56.095Z,-1.06
2023-03-07T02:28:22.473Z,-0.85
2023-03-07T02:30:58.135Z,-0.90
2023-03-07T02:33:25.159Z,-0.82
2023-03-07T02:35:58.088Z,-0.72
2023-03-07T02:38:24.833Z,-0.82
2023-03-07T02:40:55.107Z,-0.76
2023-03-07T02:43:22.684Z,-0.75
2023-03-07T02:45:49.090Z,-0.57
2023-03-07T02:48:15.494Z,-0.66
2023-03-07T02:50:41.907Z,-0.62
2023-03-07T02:53:08.652Z,-0.67
2023-03-07T02:55:35.047Z,-0.53
2023-03-07T02:58:01.430Z,-0.55
2023-03-07T03:00:27.839Z,-0.57
2023-03-07T03:02:54.222Z,-0.56
2023-03-07T03:05:21.476Z,-0.57
2023-03-07T03:07:48.532Z,-0.54
2023-03-07T03:10:15.087Z,-0.60
2023-03-07T03:12:41.474Z,-0.49
2023-03-07T03:15:08.438Z,-0.48
2023-03-07T03:17:34.820Z,-0.51
2023-03-07T03:20:01.351Z,-0.49
2023-03-07T03:22:27.768Z,-0.46
2023-03-07T03:24:54.132Z,-0.43
2023-03-07T03:27:20.577Z,-0.36
2023-03-07T03:29:46.983Z,-0.36
2023-03-07T03:32:13.381Z,-0.31
2023-03-07T03:34:39.770Z,-0.31
2023-03-07T03:37:07.742Z,-0.29
2023-03-07T03:39:34.105Z,-0.29
2023-03-07T03:42:00.492Z,-0.23
2023-03-07T03:44:26.969Z,-0.17
2023-03-07T03:46:53.449Z,-0.24
2023-03-07T03:49:19.833Z,-0.25
2023-03-07T03:51:46.226Z,-0.22
2023-03-07T03:54:12.697Z,-0.15
2023-03-07T03:56:39.091Z,-0.14
2023-03-07T03:59:05.460Z,-0.09
2023-03-07T04:01:31.898Z,-0.08
2023-03-07T04:03:58.846Z,-0.08
2023-03-07T04:06:28.364Z,0.01
2023-03-07T04:08:55.380Z,0.03
2023-03-07T04:11:23.301Z,0.04
2023-03-07T04:13:50.186Z,0.17
2023-03-07T04:16:17.143Z,0.19
2023-03-07T04:18:43.840Z,0.20
2023-03-07T04:21:11.152Z,0.21
2023-03-07T04:23:37.631Z,0.23
2023-03-07T04:26:06.386Z,0.34
2023-03-07T04:28:45.127Z,0.27
2023-03-07T04:31:11.972Z,0.30
2023-03-07T04:33:38.583Z,0.33
2023-03-07T04:36:05.594Z,0.25
2023-03-07T04:38:31.988Z,0.37
2023-03-07T04:40:58.360Z,0.35
2023-03-07T04:43:24.753Z,0.30
2023-03-07T04:45:53.176Z,0.26
2023-03-07T04:48:20.017Z,0.30
2023-03-07T04:50:49.344Z,0.26
2023-03-07T04:53:16.652Z,0.23
2023-03-07T04:55:43.705Z,0.13
2023-03-07T04:58:12.942Z,-0.10
2023-03-07T05:00:43.710Z,-0.10
2023-03-07T05:03:11.441Z,-0.08
2023-03-07T05:05:37.979Z,-0.15
2023-03-07T05:08:05.546Z,-0.17
2023-03-07T05:10:33.359Z,-0.22
2023-03-07T05:12:59.781Z,-0.23
2023-03-07T05:15:26.367Z,-0.30
2023-03-07T05:17:52.840Z,-0.32
2023-03-07T05:20:19.389Z,-0.30
2023-03-07T05:22:46.723Z,-0.27
2023-03-07T05:25:13.919Z,-0.26
2023-03-07T05:27:40.836Z,-0.19
2023-03-07T05:30:08.273Z,-0.24
2023-03-07T05:32:35.050Z,-0.24
2023-03-07T05:35:02.013Z,-0.16
2023-03-07T05:37:28.386Z,-0.20
2023-03-07T05:39:54.789Z,-0.17
2023-03-07T05:42:21.257Z,-0.18
2023-03-07T05:44:47.635Z,-0.19
2023-03-07T05:47:14.069Z,-0.17
2023-03-07T05:49:40.498Z,-0.18
2023-03-07T05:52:06.946Z,-0.10
2023-03-07T05:54:33.330Z,-0.15
2023-03-07T05:56:59.769Z,-0.15
2023-03-07T05:59:26.134Z,-0.13
2023-03-07T06:01:52.518Z,-0.08
2023-03-07T06:04:18.925Z,-0.05
2023-03-07T06:06:45.327Z,-0.02
2023-03-07T06:09:11.689Z,0.00
2023-03-07T06:11:38.044Z,-0.04
2023-03-07T06:14:04.430Z,-0.01
2023-03-07T06:16:30.876Z,0.04
2023-03-07T06:18:57.246Z,0.04
2023-03-07T06:21:23.600Z,0.06
2023-03-07T06:23:50.026Z,0.12
2023-03-07T06:26:16.532Z,0.13
2023-03-07T06:28:43.140Z,0.17
2023-03-07T06:31:15.305Z,0.23
2023-03-07T06:33:42.314Z,0.30
2023-03-07T06:36:11.527Z,0.26
2023-03-07T06:38:38.385Z,0.33
2023-03-07T06:41:05.158Z,0.35
2023-03-07T06:43:32.023Z,0.36
2023-03-07T06:45:58.502Z,0.38
2023-03-07T06:48:25.261Z,0.39
2023-03-07T06:50:51.664Z,0.51
2023-03-07T06:53:18.261Z,0.50
2023-03-07T06:55:51.232Z,0.55
2023-03-07T06:58:18.346Z,0.64
2023-03-07T07:00:45.091Z,0.69
2023-03-07T07:03:20.448Z,0.72
2023-03-07T07:05:46.851Z,0.75
2023-03-07T07:08:13.241Z,0.75
2023-03-07T07:10:39.610Z,0.78
2023-03-07T07:13:06.007Z,0.75
2023-03-07T07:15:32.593Z,0.77
2023-03-07T07:17:58.949Z,0.78
2023-03-07T07:20:25.407Z,0.92
2023-03-07T07:22:51.836Z,0.85
2023-03-07T07:25:18.201Z,1.00
2023-03-07T07:27:44.569Z,1.12
2023-03-07T07:30:11.522Z,1.15
2023-03-07T07:32:38.040Z,1.21
2023-03-07T07:35:04.998Z,1.40
2023-03-07T07:37:31.386Z,1.27
2023-03-07T07:39:57.761Z,1.46
2023-03-07T07:42:24.213Z,1.56
2023-03-07T07:44:50.612Z,1.44
2023-03-07T07:47:17.106Z,1.51
2023-03-07T07:49:43.504Z,1.61
2023-03-07T07:52:09.886Z,1.51
2023-03-07T07:54:36.359Z,1.56
2023-03-07T07:57:02.760Z,1.58
2023-03-07T07:59:29.244Z,1.51
2023-03-07T08:01:55.662Z,1.66
2023-03-07T08:04:22.027Z,1.48
2023-03-07T08:06:48.408Z,1.74
2023-03-07T08:09:14.780Z,1.67
2023-03-07T08:11:41.495Z,1.74
2023-03-07T08:14:07.948Z,1.68
2023-03-07T08:16:34.342Z,1.79
2023-03-07T08:19:01.134Z,1.74
2023-03-07T08:21:27.713Z,1.77
2023-03-07T08:23:55.275Z,1.67
2023-03-07T08:26:22.238Z,1.51
2023-03-07T08:28:48.612Z,1.62
2023-03-07T08:31:17.677Z,1.66
2023-03-07T08:33:46.731Z,1.89
2023-03-07T08:36:13.252Z,1.83
2023-03-07T08:38:39.654Z,1.96
2023-03-07T08:41:08.053Z,1.98
2023-03-07T08:43:36.555Z,2.05
2023-03-07T08:46:03.680Z,2.18
2023-03-07T08:48:30.228Z,2.17
2023-03-07T08:50:57.048Z,2.27
2023-03-07T08:53:23.558Z,2.27
2023-03-07T08:55:50.081Z,2.44
2023-03-07T08:58:16.467Z,2.52
2023-03-07T09:00:42.868Z,2.62
2023-03-07T09:03:09.335Z,2.50
2023-03-07T09:05:39.158Z,2.49
2023-03-07T09:08:07.114Z,2.53
2023-03-07T09:10:34.500Z,2.58
2023-03-07T09:13:01.054Z,2.64
2023-03-07T09:15:27.492Z,2.56
2023-03-07T09:17:54.241Z,2.69
2023-03-07T09:20:20.936Z,2.70
2023-03-07T09:22:47.291Z,2.69
2023-03-07T09:25:14.456Z,2.66
2023-03-07T09:27:40.947Z,2.58
2023-03-07T09:30:07.915Z,2.60
2023-03-07T09:32:34.403Z,2.82
2023-03-07T09:35:00.819Z,2.83
2023-03-07T09:37:27.264Z,2.90
2023-03-07T09:39:53.625Z,2.90
2023-03-07T09:42:32.686Z,2.92
2023-03-07T09:45:11.051Z,3.01
2023-03-07T09:47:58.815Z,3.20
2023-03-07T09:50:43.637Z,3.30
2023-03-07T09:53:19.073Z,3.27
2023-03-07T09:55:47.762Z,3.68
2023-03-07T09:58:19.703Z,3.63
2023-03-07T10:00:56.621Z,3.46
2023-03-07T10:03:44.804Z,3.76
2023-03-07T10:06:20.798Z,3.73
2023-03-07T10:08:47.247Z,3.66
2023-03-07T10:11:46.317Z,3.82
2023-03-07T10:14:28.046Z,3.97
2023-03-07T10:17:22.548Z,3.76
2023-03-07T10:19:57.165Z,3.59
2023-03-07T10:22:46.797Z,3.58
2023-03-07T10:25:29.568Z,3.66
2023-03-07T10:28:12.412Z,3.69
2023-03-07T10:30:38.798Z,3.75
2023-03-07T10:33:07.342Z,3.54
2023-03-07T10:35:41.145Z,3.38
2023-03-07T10:38:24.588Z,3.36
2023-03-07T10:41:21.512Z,3.24
2023-03-07T10:43:50.564Z,3.19
2023-03-07T10:46:25.797Z,3.25
2023-03-07T10:48:59.308Z,3.09
2023-03-07T10:51:42.928Z,3.15
2023-03-07T10:54:20.112Z,3.02
2023-03-07T10:57:10.487Z,2.92
2023-03-07T10:59:39.354Z,2.85
2023-03-07T11:02:46.050Z,2.61
2023-03-07T11:05:31.213Z,2.72
2023-03-07T11:07:58.459Z,2.92
2023-03-07T11:10:39.268Z,3.25
2023-03-07T11:13:17.358Z,3.17
2023-03-07T11:15:46.651Z,3.14
2023-03-07T11:18:31.432Z,3.08
2023-03-07T11:20:59.085Z,3.04
2023-03-07T11:23:31.454Z,3.27
2023-03-07T11:26:22.174Z,3.21
2023-03-07T11:29:05.079Z,3.37
2023-03-07T11:31:57.292Z,3.05
2023-03-07T11:34:31.038Z,3.16
2023-03-07T11:37:28.202Z,3.15
2023-03-07T11:40:22.410Z,3.15
2023-03-07T11:43:20.454Z,3.50
2023-03-07T11:46:03.667Z,3.39
2023-03-07T11:49:03.946Z,3.08
2023-03-07T11:52:02.658Z,3.02
2023-03-07T11:54:42.797Z,2.89
2023-03-07T11:57:51.223Z,2.75
2023-03-07T12:00:26.579Z,2.89
2023-03-07T12:03:26.916Z,3.02
2023-03-07T12:05:58.884Z,2.83
2023-03-07T12:08:46.228Z,2.54
2023-03-07T12:11:42.099Z,2.72
2023-03-07T12:14:25.963Z,2.49
2023-03-07T12:17:07.617Z,2.34
2023-03-07T12:19:53.868Z,2.38
2023-03-07T12:22:29.203Z,2.39
2023-03-07T12:25:13.188Z,2.36
2023-03-07T12:27:47.389Z,2.17
2023-03-07T12:30:23.144Z,1.97
2023-03-07T12:32:51.177Z,1.93
2023-03-07T12:35:32.735Z,2.07
2023-03-07T12:38:09.027Z,2.00
2023-03-07T12:40:47.052Z,1.92
2023-03-07T12:43:35.029Z,1.75
2023-03-07T12:46:17.939Z,1.86
2023-03-07T12:48:54.494Z,1.80
2023-03-07T12:51:35.072Z,2.01
2023-03-07T12:54:12.744Z,1.67
2023-03-07T12:56:51.060Z,1.91
2023-03-07T12:59:20.357Z,1.64
2023-03-07T13:01:52.715Z,1.63
2023-03-07T13:04:30.446Z,1.54
2023-03-07T13:07:21.180Z,1.61
2023-03-07T13:09:50.647Z,1.53
2023-03-07T13:12:18.365Z,1.50
2023-03-07T13:14:48.118Z,1.52
2023-03-07T13:17:26.605Z,1.50
2023-03-07T13:19:55.237Z,1.86
2023-03-07T13:22:21.546Z,1.86
2023-03-07T13:24:52.066Z,1.54
2023-03-07T13:27:26.030Z,1.56
2023-03-07T13:30:07.697Z,1.68
2023-03-07T13:32:49.279Z,1.73
2023-03-07T13:35:38.309Z,1.51
2023-03-07T13:38:10.705Z,1.59
2023-03-07T13:40:37.018Z,1.54
2023-03-07T13:43:27.829Z,1.60
2023-03-07T13:46:01.934Z,1.60
2023-03-07T13:48:28.397Z,1.55
2023-03-07T13:50:54.664Z,1.46
2023-03-07T13:53:33.239Z,1.46
2023-03-07T13:56:16.877Z,1.68
2023-03-07T13:58:52.206Z,1.63
2023-03-07T14:01:21.752Z,1.63
2023-03-07T14:03:53.164Z,1.78
2023-03-07T14:06:22.936Z,1.67
2023-03-07T14:08:50.960Z,1.66
2023-03-07T14:11:23.177Z,1.77
2023-03-07T14:14:09.652Z,1.79
2023-03-07T14:16:54.013Z,1.72
2023-03-07T14:19:42.759Z,1.90
2023-03-07T14:22:42.286Z,1.76
2023-03-07T14:25:17.413Z,1.56
2023-03-07T14:28:02.060Z,1.86
2023-03-07T14:30:31.441Z,1.79
2023-03-07T14:32:58.760Z,1.71
2023-03-07T14:35:43.202Z,1.94
2023-03-07T14:38:20.788Z,2.13
2023-03-07T14:40:58.779Z,1.97
2023-03-07T14:43:40.635Z,1.99
2023-03-07T14:46:39.245Z,2.08
2023-03-07T14:49:09.431Z,2.04
2023-03-07T14:51:41.310Z,1.99
2023-03-07T14:54:15.258Z,2.13
2023-03-07T14:56:41.994Z,2.09
2023-03-07T14:59:26.127Z,2.16
2023-03-07T15:01:54.820Z,2.15
2023-03-07T15:04:30.773Z,2.38
2023-03-07T15:07:00.004Z,2.07
2023-03-07T15:09:27.063Z,2.10
2023-03-07T15:12:16.530Z,1.93
2023-03-07T15:14:45.970Z,1.95
2023-03-07T15:17:20.658Z,2.07
2023-03-07T15:19:51.872Z,2.05
2023-03-07T15:22:28.933Z,1.86
2023-03-07T15:24:55.551Z,1.97
2023-03-07T15:27:32.099Z,1.97
2023-03-07T15:30:00.763Z,2.07
2023-03-07T15:32:39.393Z,1.99
2023-03-07T15:35:05.827Z,2.03
2023-03-07T15:37:32.957Z,2.01
2023-03-07T15:40:08.255Z,1.95
2023-03-07T15:42:52.685Z,1.83
2023-03-07T15:45:39.673Z,1.73
2023-03-07T15:48:43.642Z,1.87
2023-03-07T15:51:19.707Z,1.90
2023-03-07T15:53:56.104Z,1.80
2023-03-07T15:56:26.746Z,1.92
2023-03-07T15:59:00.284Z,1.99
2023-03-07T16:01:27.665Z,1.90
2023-03-07T16:03:59.320Z,1.89
2023-03-07T16:06:38.071Z,1.95
2023-03-07T16:09:05.895Z,1.87
2023-03-07T16:11:33.143Z,1.85
2023-03-07T16:13:59.879Z,1.83
2023-03-07T16:16:29.539Z,1.87
2023-03-07T16:18:58.191Z,1.74
2023-03-07T16:21:26.037Z,1.79
2023-03-07T16:23:52.698Z,1.73
2023-03-07T16:26:24.448Z,1.71
2023-03-07T16:28:52.006Z,1.69
2023-03-07T16:31:18.825Z,1.65
2023-03-07T16:33:46.609Z,1.64
2023-03-07T16:36:14.711Z,1.60
2023-03-07T16:38:41.757Z,1.60
2023-03-07T16:41:26.173Z,1.61
2023-03-07T16:43:55.343Z,1.53
2023-03-07T16:46:22.891Z,1.57
2023-03-07T16:48:49.307Z,1.61
2023-03-07T16:51:18.624Z,1.56
2023-03-07T16:53:46.029Z,1.59
2023-03-07T16:56:23.289Z,1.55
2023-03-07T16:58:49.777Z,1.55
2023-03-07T17:01:16.220Z,1.53
2023-03-07T17:03:42.765Z,1.47
2023-03-07T17:06:16.759Z,1.51
2023-03-07T17:08:44.665Z,1.51
2023-03-07T17:11:31.919Z,1.48
2023-03-07T17:14:00.745Z,1.51
2023-03-07T17:16:27.236Z,1.47
2023-03-07T17:18:53.998Z,1.47
2023-03-07T17:21:22.059Z,1.43
2023-03-07T17:23:49.279Z,1.45
2023-03-07T17:26:27.718Z,1.44
2023-03-07T17:28:57.030Z,1.43
2023-03-07T17:31:23.586Z,1.38
2023-03-07T17:33:49.994Z,1.43
2023-03-07T17:36:16.432Z,1.42
2023-03-07T17:38:42.905Z,1.43
2023-03-07T17:41:09.272Z,1.39
2023-03-07T17:43:35.655Z,1.35
2023-03-07T17:46:07.217Z,1.39
2023-03-07T17:48:35.562Z,1.35
2023-03-07T17:51:07.074Z,1.36
2023-03-07T17:53:35.410Z,1.45
2023-03-07T17:56:10.555Z,1.39
2023-03-07T17:58:38.493Z,1.36
2023-03-07T18:01:08.808Z,1.29
2023-03-07T18:03:35.481Z,1.28
2023-03-07T18:06:01.874Z,1.23
2023-03-07T18:08:31.397Z,1.26
2023-03-07T18:11:11.740Z,1.25
2023-03-07T18:13:38.686Z,1.20
2023-03-07T18:16:06.225Z,1.18
2023-03-07T18:18:50.530Z,1.16
2023-03-07T18:21:24.496Z,1.13
2023-03-07T18:23:51.942Z,1.14
2023-03-07T18:26:20.167Z,1.13
2023-03-07T18:28:48.276Z,1.13
2023-03-07T18:31:21.466Z,1.14
2023-03-07T18:33:50.995Z,1.12
2023-03-07T18:36:17.631Z,1.12
2023-03-07T18:38:44.745Z,1.12
2023-03-07T18:41:16.820Z,1.12
2023-03-07T18:43:43.551Z,1.10
2023-03-07T18:46:12.478Z,1.14
2023-03-07T18:48:39.228Z,1.12
2023-03-07T18:51:17.104Z,1.09
2023-03-07T18:53:44.175Z,1.05
2023-03-07T18:56:15.984Z,1.08
2023-03-07T18:58:45.121Z,1.03
2023-03-07T19:01:16.185Z,0.99
2023-03-07T19:03:43.652Z,0.99
2023-03-07T19:06:12.235Z,0.98
2023-03-07T19:08:38.993Z,1.05
2023-03-07T19:11:07.206Z,1.07
2023-03-07T19:13:33.726Z,0.97
2023-03-07T19:16:06.020Z,0.94
2023-03-07T19:18:33.815Z,0.97
2023-03-07T19:21:00.350Z,0.99
2023-03-07T19:23:26.745Z,0.92
2023-03-07T19:25:53.121Z,0.94
2023-03-07T19:28:19.559Z,1.00
2023-03-07T19:30:46.027Z,0.96
2023-03-07T19:33:12.420Z,0.93
2023-03-07T19:35:38.915Z,0.87
2023-03-07T19:38:05.360Z,0.83
2023-03-07T19:40:31.778Z,0.82
2023-03-07T19:42:58.297Z,0.83
2023-03-07T19:45:25.017Z,0.80
2023-03-07T19:47:51.411Z,0.78
2023-03-07T19:50:18.029Z,0.79
2023-03-07T19:52:44.404Z,0.74
2023-03-07T19:55:10.832Z,0.76
2023-03-07T19:57:37.237Z,0.78
2023-03-07T20:00:05.687Z,0.76
2023-03-07T20:02:34.181Z,0.75
2023-03-07T20:05:00.828Z,0.70
2023-03-07T20:07:27.319Z,0.71
2023-03-07T20:09:54.219Z,0.69
2023-03-07T20:12:20.839Z,0.70
2023-03-07T20:14:48.369Z,0.72
2023-03-07T20:17:14.879Z,0.74
2023-03-07T20:19:41.458Z,0.75
2023-03-07T20:22:08.007Z,0.76
2023-03-07T20:24:36.118Z,0.70
2023-03-07T20:27:02.700Z,0.70
2023-03-07T20:29:29.306Z,0.66
2023-03-07T20:31:56.967Z,0.69
2023-03-07T20:34:25.306Z,0.70
2023-03-07T20:36:52.026Z,0.64
2023-03-07T20:39:18.463Z,0.68
2023-03-07T20:41:45.052Z,0.71
2023-03-07T20:44:13.955Z,0.64
2023-03-07T20:46:41.461Z,0.61
2023-03-07T20:49:08.014Z,0.60
2023-03-07T20:51:36.055Z,0.65
2023-03-07T20:54:05.598Z,0.65
2023-03-07T20:56:33.982Z,0.68
2023-03-07T20:59:00.649Z,0.68
2023-03-07T21:01:29.685Z,0.71
2023-03-07T21:03:59.188Z,0.67
2023-03-07T21:06:26.094Z,0.66
2023-03-07T22:46:31.603Z,0.51
2023-03-07T22:48:58.017Z,0.56
2023-03-07T22:51:25.109Z,0.70
2023-03-07T22:53:52.196Z,0.53
2023-03-07T22:56:21.993Z,0.44
2023-03-07T22:58:48.425Z,0.43
2023-03-07T23:01:17.723Z,0.39
2023-03-07T23:03:44.196Z,0.49
2023-03-07T23:06:13.139Z,0.37
2023-03-07T23:08:39.820Z,0.29
2023-03-07T23:11:08.449Z,0.29
2023-03-07T23:13:35.368Z,0.25
2023-03-07T23:16:10.301Z,0.26
2023-03-07T23:18:38.115Z,0.18
2023-03-07T23:21:06.583Z,0.10
2023-03-07T23:23:33.085Z,0.11
2023-03-07T23:25:59.467Z,0.06
2023-03-07T23:28:25.871Z,0.12
2023-03-07T23:30:52.508Z,0.06
2023-03-07T23:33:19.026Z,-0.04
2023-03-07T23:35:45.434Z,-0.05
2023-03-07T23:38:13.132Z,-0.04
2023-03-07T23:40:39.734Z,-0.14
2023-03-07T23:43:06.429Z,-0.17
2023-03-07T23:45:32.779Z,-0.23
2023-03-07T23:47:59.164Z,-0.19
2023-03-07T23:50:25.779Z,-0.23
2023-03-07T23:52:52.149Z,-0.33
2023-03-07T23:55:18.548Z,-0.37
2023-03-07T23:57:46.818Z,-0.37
